• Join FlightAware (Why Join?)
  • Login
  • US Flag 
10:49PM EDT


 

Airport Tracker/Info


-or-


 

Live Flight TrackerFlight Track Log ✈ AAL1404 ✈ 27-Apr-2013 ✈ KMIA - KDCA

Flight Track Log - Related Links

Times and Time Zones

All times are in EDT time to prevent confusion due to time zone crossing. See the AAL1404 flight status page for this flight to view local times or setup timezone preferences in your user account.

Time Position Orientation Groundspeed Altitude Reporting Facility
EDT Latitude Longitude Course Direction KTS MPH feet Rate Location/Type
07:13PM 25.7983 -80.2631 48° Northeast 161 185 900  Level Miami Center
07:14PM 25.8039 -80.2078 84° East 206 237 2,400 1,320 Climbing Miami Center
07:14PM 25.8064 -80.1917 80° East 227 261 2,700 1,980 Climbing Miami Center
07:15PM 25.8722 -79.9333 53° Northeast  Level FlightAware Approximate
07:15PM 25.8206 -80.1181 78° East 246 283 5,000  Level Miami Center
07:16PM 25.9413 -79.8322 52° Northeast  Level FlightAware Approximate
07:16PM 25.8431 -80.0425 72° East 246 283 7,300  Level Miami Center
07:17PM 26.0096 -79.7307 61° Northeast  Level FlightAware Approximate
07:17PM 25.8844 -79.9697 58° Northeast 258 297 10,200  Level Miami Center
07:18PM 26.0830 -79.6337 48° Northeast  Level FlightAware Approximate
07:18PM 25.9339 -79.8947 54° Northeast 276 318 11,500  Level Miami Center
07:19PM 25.9900 -79.8039 55° Northeast 317 365 13,700 2,400 Climbing Miami Center
07:20PM 26.0483 -79.7106 55° Northeast 352 405 16,400 2,520 Climbing Miami Center
07:21PM 26.1108 -79.6103 55° Northeast 375 432 18,800 2,340 Climbing Miami Center
07:22PM 26.1794 -79.5122 52° Northeast 387 445 21,100 2,160 Climbing Miami Center
07:23PM 26.2953 -79.4569 23° Northeast 394 453 23,200 1,920 Climbing Miami Center
07:24PM 26.3986 -79.4103 22° Northeast 421 484 25,000 1,860 Climbing Miami Center
07:25PM 26.5269 -79.3528 22° Northeast 443 510 27,000 1,800 Climbing Miami Center
07:26PM 26.6364 -79.3017 23° Northeast 453 521 28,600 1,560 Climbing Miami Center
07:27PM 26.7564 -79.2483 22° Northeast 459 528 30,200 1,620 Climbing Miami Center
07:28PM 26.8742 -79.1947 22° Northeast 454 522 31,900 1,560 Climbing Miami Center
07:29PM 26.9881 -79.1389 24° Northeast 454 522 33,400 1,680 Climbing Miami Center
07:30PM 27.1247 -79.0808 21° North 460 529 35,300 1,560 Climbing Miami Center
07:31PM 27.2422 -79.0294 21° North 453 521 36,600 840 Climbing Miami Center
07:32PM 27.3600 -78.9847 19° North 453 521 37,000 180 Climbing Miami Center
07:33PM 27.4731 -78.9706 North 440 506 37,000  Level Miami Center
07:34PM 27.5964 -78.9517 North 446 513 37,000  Level Miami Center
07:35PM 27.7325 -78.9331 North 446 513 37,000  Level Miami Center
07:36PM 27.8558 -78.9117 North 446 513 37,000  Level Miami Center
07:37PM 27.9794 -78.8928 North 446 513 37,000  Level Miami Center
07:38PM 28.1047 -78.8761 North 446 513 37,000  Level Miami Center
07:39PM 28.2283 -78.8572 North 446 513 37,000  Level Miami Center
07:40PM 28.3558 -78.8406 North 446 513 37,000 -60 Level Miami Center
07:41PM 28.4792 -78.8217 North 446 513 36,900 -60 Descending Miami Center
07:42PM 28.5983 -78.8022 North 446 513 36,900  Level Miami Center
07:43PM 28.7217 -78.7878 North 441 507 37,000  Climbing Miami Center
07:44PM 28.8389 -78.7661 North 446 513 37,000  Level Miami Center
07:45PM 28.9622 -78.7494 North 446 513 37,000  Level Miami Center
07:46PM 29.0856 -78.7325 North 446 513 37,000  Level Miami Center
07:47PM 29.2069 -78.7156 North 446 513 37,000 -60 Level Miami Center
07:48PM 29.3281 -78.6939 North 446 513 36,900  Descending Miami Center
07:49PM 29.4453 -78.6719 North 440 506 37,000  Climbing Miami Center
07:50PM 29.5725 -78.6572 North 440 506 37,000  Level Miami Center
07:52PM 29.7544 -78.6156 11° North 424 488 37,000  Level Jacksonville Center
07:53PM 29.8833 -78.6050 North 447 514 37,000  Level Jacksonville Center
07:54PM 30.0036 -78.5828 North 457 526 37,000  Level Jacksonville Center
07:55PM 30.1219 -78.5631 North 440 506 37,000  Level Jacksonville Center
07:56PM 30.2322 -78.5486 North 439 505 37,000  Level Jacksonville Center
07:57PM 30.3464 -78.5314 North 439 505 37,000 -60 Level Jacksonville Center
07:58PM 30.4708 -78.5111 North 439 505 36,900  Descending Jacksonville Center
07:59PM 30.5933 -78.4936 North 439 505 37,000  Climbing Jacksonville Center
08:00PM 30.7181 -78.4733 North 444 511 37,000  Level Jacksonville Center
08:01PM 30.8364 -78.4556 North 437 503 37,000 -60 Level Jacksonville Center
08:02PM 30.9567 -78.4356 North 442 509 36,900  Descending Jacksonville Center
08:03PM 31.0772 -78.4200 North 437 503 37,000  Climbing Jacksonville Center
08:04PM 31.1997 -78.3972 North 442 509 37,000  Level Jacksonville Center
08:05PM 31.3219 -78.3767 North 442 509 37,000  Level Jacksonville Center
08:06PM 31.4425 -78.3589 North 442 509 37,000  Level Jacksonville Center
08:07PM 31.5650 -78.3406 North 442 509 37,000  Level Jacksonville Center
08:08PM 31.6875 -78.3200 North 442 509 37,000  Level Jacksonville Center
08:09PM 31.8097 -78.2992 North 442 509 37,000 -60 Level Jacksonville Center
08:10PM 31.9303 -78.2811 North 442 509 36,900 -60 Descending Jacksonville Center
08:11PM 32.0650 -78.2594 North 444 511 36,900  Level Jacksonville Center
08:12PM 32.1875 -78.2386 North 437 503 36,900  Level Jacksonville Center
08:13PM 32.2931 -78.2111 12° North 437 503 37,000  Climbing Jacksonville Center
08:14PM 32.4111 -78.1928 North 431 496 36,900  Descending Jacksonville Center
08:15PM 32.5317 -78.1767 North 431 496 37,000  Climbing Jacksonville Center
08:16PM 32.6497 -78.1558 North 426 490 37,000  Level Jacksonville Center
08:17PM 32.7658 -78.1347 North 426 490 37,000  Level Jacksonville Center
08:18PM 32.8842 -78.1161 North 426 490 37,000  Level Jacksonville Center
08:19PM 33.0067 -78.0997 North 426 490 37,000  Level Jacksonville Center
08:20PM 33.1247 -78.0786 North 426 490 37,000  Level Jacksonville Center
08:21PM 33.2453 -78.0597 North 426 490 37,000  Level Jacksonville Center
08:23PM 33.4858 -78.0192 North 429 494 37,000  Level Washington Center
08:24PM 33.6053 -78.0003 North 429 494 37,000  Level Washington Center
08:25PM 33.7267 -77.9814 North 429 494 37,000  Level Washington Center
08:26PM 33.8417 -77.9619 North 429 494 37,000  Level Washington Center
08:27PM 33.9653 -77.9381 North 435 501 37,000  Level Washington Center
08:28PM 34.0867 -77.9214 North 435 501 37,000  Level Washington Center
08:29PM 34.2017 -77.8994 North 428 493 37,000  Level Washington Center
08:30PM 34.3336 -77.8806 North 428 493 37,000  Level Washington Center
08:31PM 34.4506 -77.8661 North 423 487 37,000 -60 Level Washington Center
08:32PM 34.5656 -77.8544 North 423 487 36,900 -60 Descending Washington Center
08:33PM 34.6806 -77.8422 North 418 481 36,900  Level Washington Center
08:34PM 34.7956 -77.8328 North 413 475 37,000  Climbing Washington Center
08:35PM 34.8919 -77.8178 North 408 470 37,000  Level Washington Center
08:36PM 35.0089 -77.8058 North 408 470 37,000  Level Washington Center
08:37PM 35.1217 -77.7936 North 408 470 37,000  Level Washington Center
08:38PM 35.2347 -77.7814 North 403 464 37,000  Level Washington Center
08:39PM 35.3456 -77.7692 North 403 464 37,000  Level Washington Center
08:40PM 35.4583 -77.7569 North 403 464 37,000  Level Washington Center
08:41PM 35.5711 -77.7472 North 403 464 37,000  Level Washington Center
08:42PM 35.6819 -77.7350 North 403 464 37,000 -420 Level Washington Center
08:43PM 35.7969 -77.7225 North 409 471 36,200 -900 Descending Washington Center
08:44PM 35.9119 -77.7103 North 409 471 35,200 -1,080 Descending Washington Center
08:45PM 36.0272 -77.6903 North 409 471 34,100 -1,080 Descending Washington Center
08:46PM 36.1464 -77.6653 10° North 414 476 33,100 -1,440 Descending Washington Center
08:47PM 36.2617 -77.6347 12° North 414 476 31,300 -2,100 Descending Washington Center
08:48PM 36.3686 -77.6092 11° North 414 476 28,900 -2,160 Descending Washington Center
08:49PM 36.4858 -77.5786 12° North 412 474 27,000 -960 Descending Washington Center
08:50PM 36.5950 -77.5503 12° North 400 460 27,000 -360 Level Washington Center
08:51PM 36.7058 -77.5219 12° North 395 455 26,300 -960 Descending Washington Center
08:52PM 36.8192 -77.4936 11° North 395 455 25,100 -1,140 Descending Washington Center
08:53PM 36.9258 -77.4678 11° North 395 455 24,000 -660 Descending Washington Center
08:54PM 37.0306 -77.4417 11° North 390 449 23,900 -480 Descending Washington Center
08:55PM 37.1331 -77.4156 11° North 390 449 23,100 -600 Descending Washington Center
08:56PM 37.2378 -77.3892 11° North 390 449 22,800 -720 Descending Washington Center
08:57PM 37.3425 -77.3631 11° North 385 443 21,700 -1,200 Descending Washington Center
08:58PM 37.4431 -77.3367 12° North 375 432 20,500 -1,380 Descending Washington Center
08:59PM 37.5456 -77.3128 10° North 375 432 19,000 -1,320 Descending Washington Center
09:00PM 37.6439 -77.2939 North 370 426 17,900 -1,320 Descending Washington Center
09:01PM 37.7403 -77.2725 10° North 363 418 16,400 -1,500 Descending Washington Center
09:02PM 37.8322 -77.2508 11° North 350 403 14,900 -1,440 Descending Washington Center
09:03PM 37.9264 -77.2319 North 345 397 13,600 -1,320 Descending Washington Center
09:04PM 38.0164 -77.2128 10° North 339 390 12,300 -1,320 Descending Washington Center
09:05PM 38.1144 -77.1989 North 327 376 11,100 -1,140 Descending Washington Center
09:06PM 38.2044 -77.1772 11° North 327 376 10,100 -600 Descending Washington Center
09:07PM 38.2861 -77.1578 11° North 327 376 10,000 -60 Descending Washington Center
09:08PM 38.3800 -77.1411 North 316 364 10,000  Level Washington Center
09:09PM 38.4678 -77.1244 North 316 364 10,000 -480 Level Washington Center
09:10PM 38.5453 -77.1075 10° North 304 350 9,100 -1,020 Descending Washington Center
09:11PM 38.6183 -77.0903 10° North 286 329 8,000 -1,260 Descending Washington Center
09:11PM 38.6500 -77.0833 10° North 265 305 7,300 -1,140 Descending Potomac TRACON
09:12PM 38.7333 -77.0667 North 255 293 6,400 -720 Descending Potomac TRACON
09:13PM 38.7833 -77.0833 345° North 243 280 5,900 -480 Descending Potomac TRACON
09:14PM 38.8500 -77.1333 330° Northwest 232 267 5,500 -840 Descending Potomac TRACON
09:15PM 38.8833 -77.1833 311° West 214 246 4,300 -1,080 Descending Potomac TRACON
09:17PM 38.9500 -77.1333 30° Northeast 183 211 2,400 -960 Descending Potomac TRACON